Mildred, Pennsylvania
Current Conditions -  °F | °C
As of 10:54 PM on Tuesday 25 Nov 2014 (Local Time) from KIPT Reporting Station
Clear Clear  
Wind Chill: 33°   Ceiling: Unl
Heat Index: 33°   Visibility: 10mi
Dew Point: 27°   Wind: 3mph
Humidity: 78%   Direction: NA
Pressure: 30.18"   Gusts: NA
Location:  41.48°N, 76.38°W
Report Text: KIPT 260354Z AUTO VRB03KT 10SM CLR 01/M03 A3018 RMK AO2 SLP222 T00061028
Loading
Personal Weather Stations






























Interactive Weather Map New forecast layout! Learn more

10-Day Weather Forecast

Advertisements
Track Severe Weather on mobile